Time;durP1;ratioP1;P1;durP2;ratioP2;P2;SDS_P1;SDS_P2;PMS_P1;PMS_P2;Temp;Humidity;BMP_temperature;BMP_pressure;BME280_temperature;BME280_humidity;BME280_pressure;Samples;Min_cycle;Max_cycle;Signal;HPM_P1;HPM_P2
2024/03/16 00:00:07;;;;;;;4.05;1.85;;;;;;;;;;5071801;28;20052;-60
2024/03/16 00:02:34;;;;;;;3.40;1.58;;;;;;;;;;5063027;28;20051;-61
2024/03/16 00:05:01;;;;;;;2.92;1.90;;;;;;;;;;5060542;28;20060;-60
2024/03/16 00:07:28;;;;;;;4.20;1.95;;;;;;;;;;5054925;28;20056;-61
2024/03/16 00:09:54;;;;;;;3.33;1.80;;;;;;;;;;5055898;28;20052;-60
2024/03/16 00:12:22;;;;;;;4.78;2.33;;;;;;;;;;5064260;28;20070;-60
2024/03/16 00:14:49;;;;;;;5.85;2.25;;;;;;;;;;5062363;28;20048;-59
2024/03/16 00:17:17;;;;;;;4.82;2.55;;;;;;;;;;5066265;28;20489;-59
2024/03/16 00:19:45;;;;;;;5.32;2.15;;;;;;;;;;5054367;28;20071;-60
2024/03/16 00:22:12;;;;;;;6.38;2.30;;;;;;;;;;5052588;28;20049;-59
2024/03/16 00:24:39;;;;;;;5.68;2.30;;;;;;;;;;5053103;28;20060;-60
2024/03/16 00:27:07;;;;;;;5.38;2.47;;;;;;;;;;5072505;28;20063;-59
2024/03/16 00:29:34;;;;;;;7.47;2.53;;;;;;;;;;5061632;28;20052;-59
2024/03/16 00:32:01;;;;;;;7.75;2.55;;;;;;;;;;5062053;28;20053;-59
2024/03/16 00:34:28;;;;;;;4.97;2.55;;;;;;;;;;5078743;28;20055;-60
2024/03/16 00:36:55;;;;;;;3.83;2.58;;;;;;;;;;5078285;28;20048;-59
2024/03/16 00:39:23;;;;;;;4.13;2.97;;;;;;;;;;5069603;28;20055;-59
2024/03/16 00:41:50;;;;;;;6.00;2.67;;;;;;;;;;5069491;28;20052;-59
2024/03/16 00:44:18;;;;;;;5.45;2.63;;;;;;;;;;5066396;28;20079;-59
2024/03/16 00:46:45;;;;;;;6.28;2.95;;;;;;;;;;5066587;28;20056;-59
2024/03/16 00:49:12;;;;;;;5.53;2.50;;;;;;;;;;5038477;28;20056;-60
2024/03/16 00:51:40;;;;;;;3.55;2.50;;;;;;;;;;5045268;28;20052;-59
2024/03/16 00:54:07;;;;;;;5.63;3.10;;;;;;;;;;5058125;28;20085;-59
2024/03/16 00:56:34;;;;;;;3.90;2.30;;;;;;;;;;5047846;28;20052;-59
2024/03/16 00:59:01;;;;;;;5.03;2.33;;;;;;;;;;5048742;28;20052;-59
2024/03/16 01:01:33;;;;;;;4.68;2.08;;;;;;;;;;5045806;28;20056;-59
2024/03/16 01:04:00;;;;;;;5.07;2.13;;;;;;;;;;5038839;28;20060;-59
2024/03/16 01:06:27;;;;;;;3.85;1.90;;;;;;;;;;5038073;28;20053;-59
2024/03/16 01:08:53;;;;;;;4.78;2.20;;;;;;;;;;5037911;28;20075;-59
2024/03/16 01:11:22;;;;;;;4.35;2.40;;;;;;;;;;5039702;28;20056;-59
2024/03/16 01:13:49;;;;;;;4.53;2.35;;;;;;;;;;5046134;28;20057;-59
2024/03/16 01:16:15;;;;;;;5.38;2.10;;;;;;;;;;5043942;28;20057;-59
2024/03/16 01:18:42;;;;;;;4.25;2.20;;;;;;;;;;5040614;28;20041;-60
2024/03/16 01:21:09;;;;;;;4.70;2.22;;;;;;;;;;5040612;28;20049;-59
2024/03/16 01:23:36;;;;;;;4.40;2.40;;;;;;;;;;5046584;28;20049;-59
2024/03/16 01:26:04;;;;;;;5.45;2.22;;;;;;;;;;5042863;28;20141;-59
2024/03/16 01:28:31;;;;;;;5.85;2.55;;;;;;;;;;5044565;28;20045;-59
2024/03/16 01:30:58;;;;;;;7.30;2.85;;;;;;;;;;5037630;28;20064;-59
2024/03/16 01:33:25;;;;;;;4.47;2.58;;;;;;;;;;5037564;28;20052;-59
2024/03/16 01:35:52;;;;;;;7.53;2.90;;;;;;;;;;5044844;28;20520;-58
2024/03/16 01:38:18;;;;;;;4.00;2.58;;;;;;;;;;5040224;28;20056;-59
2024/03/16 01:40:45;;;;;;;6.00;2.85;;;;;;;;;;5055101;28;20053;-59
2024/03/16 01:43:12;;;;;;;4.28;2.45;;;;;;;;;;5056272;28;20061;-58
2024/03/16 01:45:39;;;;;;;6.57;2.47;;;;;;;;;;5039176;28;20083;-58
2024/03/16 01:48:09;;;;;;;6.55;3.05;;;;;;;;;;5053926;28;20055;-60
2024/03/16 01:50:36;;;;;;;7.05;2.70;;;;;;;;;;5061244;28;20056;-58
2024/03/16 01:53:04;;;;;;;7.55;2.90;;;;;;;;;;5062015;28;20044;-59
2024/03/16 01:55:31;;;;;;;7.75;2.95;;;;;;;;;;5060960;28;20429;-59
2024/03/16 01:57:58;;;;;;;10.32;3.10;;;;;;;;;;5067192;28;20071;-59
2024/03/16 02:00:26;;;;;;;7.65;2.70;;;;;;;;;;5076794;28;20063;-58
2024/03/16 02:02:54;;;;;;;7.45;2.67;;;;;;;;;;5076006;28;20044;-59
2024/03/16 02:05:21;;;;;;;8.75;2.28;;;;;;;;;;5073125;28;20062;-58
2024/03/16 02:07:48;;;;;;;6.28;2.28;;;;;;;;;;5059187;28;20059;-58
2024/03/16 02:10:15;;;;;;;4.45;1.95;;;;;;;;;;5058668;28;20059;-59
2024/03/16 02:12:42;;;;;;;7.47;2.22;;;;;;;;;;5060256;28;20048;-59
2024/03/16 02:15:08;;;;;;;8.30;2.42;;;;;;;;;;5056332;28;20056;-59
2024/03/16 02:17:35;;;;;;;7.53;2.30;;;;;;;;;;5061912;28;20424;-58
2024/03/16 02:20:03;;;;;;;8.65;2.50;;;;;;;;;;5058282;28;20057;-59
2024/03/16 02:22:30;;;;;;;6.20;2.30;;;;;;;;;;5069692;28;20044;-58
2024/03/16 02:24:56;;;;;;;7.80;2.47;;;;;;;;;;5075722;28;20056;-59
2024/03/16 02:27:24;;;;;;;9.25;2.40;;;;;;;;;;5069269;28;20052;-59
2024/03/16 02:29:51;;;;;;;7.55;2.33;;;;;;;;;;5061651;28;20505;-59
2024/03/16 02:32:18;;;;;;;7.32;2.17;;;;;;;;;;5067493;28;20055;-59
2024/03/16 02:34:45;;;;;;;4.88;2.08;;;;;;;;;;5062442;28;20436;-59
2024/03/16 02:37:12;;;;;;;8.50;2.47;;;;;;;;;;5055768;28;20059;-59
2024/03/16 02:39:39;;;;;;;6.53;2.28;;;;;;;;;;5065314;28;20059;-59
2024/03/16 02:42:06;;;;;;;7.95;2.33;;;;;;;;;;5065854;28;20052;-59
2024/03/16 02:44:33;;;;;;;5.97;2.30;;;;;;;;;;5055923;28;20053;-59
2024/03/16 02:47:00;;;;;;;7.82;2.70;;;;;;;;;;5061473;28;20061;-59
2024/03/16 02:49:27;;;;;;;6.63;2.45;;;;;;;;;;5056054;28;20052;-58
2024/03/16 02:51:54;;;;;;;7.05;2.55;;;;;;;;;;5053089;28;20088;-58
2024/03/16 02:54:21;;;;;;;10.70;2.60;;;;;;;;;;5041016;28;20056;-58
2024/03/16 02:56:48;;;;;;;6.22;2.22;;;;;;;;;;5038074;28;20052;-58
2024/03/16 02:59:14;;;;;;;7.38;2.45;;;;;;;;;;5049171;28;20063;-59
2024/03/16 03:01:42;;;;;;;9.55;2.75;;;;;;;;;;5055399;28;20063;-58
2024/03/16 03:04:08;;;;;;;8.63;2.40;;;;;;;;;;5052792;28;20051;-59
2024/03/16 03:06:35;;;;;;;5.22;2.42;;;;;;;;;;5055641;28;20057;-58
2024/03/16 03:09:03;;;;;;;7.93;2.75;;;;;;;;;;5055502;28;20485;-59
2024/03/16 03:11:30;;;;;;;5.80;2.10;;;;;;;;;;5051489;28;20509;-58
2024/03/16 03:13:56;;;;;;;6.38;2.50;;;;;;;;;;5048289;28;20048;-59
2024/03/16 03:16:23;;;;;;;5.82;2.00;;;;;;;;;;5041544;28;20474;-58
2024/03/16 03:18:50;;;;;;;6.70;2.58;;;;;;;;;;5047751;28;20059;-59
2024/03/16 03:21:17;;;;;;;5.40;2.40;;;;;;;;;;5043813;28;20064;-59
2024/03/16 03:23:43;;;;;;;5.45;2.33;;;;;;;;;;5041841;28;20171;-59
2024/03/16 03:26:10;;;;;;;7.38;2.60;;;;;;;;;;5038892;28;20526;-59
2024/03/16 03:28:37;;;;;;;7.10;2.85;;;;;;;;;;5035159;28;20053;-59
2024/03/16 03:31:04;;;;;;;8.98;2.88;;;;;;;;;;5035123;28;20056;-58
2024/03/16 03:33:30;;;;;;;6.70;2.60;;;;;;;;;;5050908;28;20064;-59
2024/03/16 03:35:57;;;;;;;8.70;3.13;;;;;;;;;;5043901;28;20056;-58
2024/03/16 03:38:24;;;;;;;12.32;3.03;;;;;;;;;;5045800;28;20051;-59
2024/03/16 03:40:51;;;;;;;6.60;3.00;;;;;;;;;;5039314;28;20049;-59
2024/03/16 03:43:20;;;;;;;6.30;2.45;;;;;;;;;;5054974;28;20059;-59
2024/03/16 03:45:53;;;;;;;4.18;2.72;;;;;;;;;;5045370;28;20514;-59
2024/03/16 03:48:35;;;;;;;7.05;3.53;;;;;;;;;;5056362;28;20055;-59
2024/03/16 03:51:03;;;;;;;5.10;2.95;;;;;;;;;;5064072;28;20052;-58
2024/03/16 03:53:30;;;;;;;8.38;2.90;;;;;;;;;;5054727;28;20048;-59
2024/03/16 03:55:58;;;;;;;6.88;3.00;;;;;;;;;;5065224;28;20393;-59
2024/03/16 03:58:25;;;;;;;5.90;3.40;;;;;;;;;;5059457;28;20075;-59
2024/03/16 04:00:52;;;;;;;6.70;3.15;;;;;;;;;;5062724;28;20481;-59
2024/03/16 04:03:19;;;;;;;8.38;3.38;;;;;;;;;;5059279;28;20055;-59
2024/03/16 04:05:46;;;;;;;6.38;3.38;;;;;;;;;;5054589;28;20406;-59
2024/03/16 04:08:12;;;;;;;6.40;3.45;;;;;;;;;;5088120;28;20075;-59
2024/03/16 04:10:39;;;;;;;9.38;3.75;;;;;;;;;;5078714;28;20417;-59
2024/03/16 04:13:06;;;;;;;7.65;3.40;;;;;;;;;;5057314;28;20057;-59
2024/03/16 04:15:33;;;;;;;7.65;4.10;;;;;;;;;;5054659;28;20401;-59
2024/03/16 04:18:00;;;;;;;7.55;3.53;;;;;;;;;;5054328;28;20052;-59
2024/03/16 04:20:26;;;;;;;10.18;4.00;;;;;;;;;;5060805;28;20053;-59
2024/03/16 04:22:53;;;;;;;6.55;3.67;;;;;;;;;;5055174;28;20052;-59
2024/03/16 04:25:21;;;;;;;8.05;3.42;;;;;;;;;;5088759;28;20057;-59
2024/03/16 04:27:48;;;;;;;7.88;3.85;;;;;;;;;;5087795;28;20055;-59
2024/03/16 04:30:15;;;;;;;7.13;3.88;;;;;;;;;;5088866;28;20044;-59
2024/03/16 04:32:42;;;;;;;8.15;3.60;;;;;;;;;;5074554;28;20055;-59
2024/03/16 04:35:09;;;;;;;9.30;3.88;;;;;;;;;;5074365;28;20401;-59
2024/03/16 04:37:36;;;;;;;9.95;4.30;;;;;;;;;;5074655;28;20048;-59
2024/03/16 04:40:04;;;;;;;9.38;4.15;;;;;;;;;;5071323;28;20052;-59
2024/03/16 04:42:31;;;;;;;7.32;3.85;;;;;;;;;;5058024;28;20473;-59
2024/03/16 04:44:58;;;;;;;9.95;4.55;;;;;;;;;;5053460;28;20049;-59
2024/03/16 04:47:24;;;;;;;11.00;4.90;;;;;;;;;;5054063;28;20056;-59
2024/03/16 04:49:51;;;;;;;10.98;4.53;;;;;;;;;;5056154;28;20064;-59
2024/03/16 04:52:18;;;;;;;7.78;4.50;;;;;;;;;;5057577;28;20067;-58
2024/03/16 04:54:45;;;;;;;10.73;4.40;;;;;;;;;;5064880;28;20048;-59
2024/03/16 04:57:12;;;;;;;8.27;4.55;;;;;;;;;;5073490;28;20051;-58
2024/03/16 04:59:39;;;;;;;8.57;4.60;;;;;;;;;;5074072;28;20059;-59
2024/03/16 05:02:06;;;;;;;11.70;4.90;;;;;;;;;;5065314;28;20401;-59
2024/03/16 05:04:33;;;;;;;10.07;5.45;;;;;;;;;;5054124;28;20056;-59
2024/03/16 05:07:00;;;;;;;8.07;4.90;;;;;;;;;;5053943;28;20056;-59
2024/03/16 05:09:27;;;;;;;11.00;5.05;;;;;;;;;;5061405;28;20398;-58
2024/03/16 05:11:54;;;;;;;12.30;6.30;;;;;;;;;;5054599;28;20053;-59
2024/03/16 05:14:21;;;;;;;10.75;6.20;;;;;;;;;;5054923;28;20044;-59
2024/03/16 05:16:48;;;;;;;10.88;5.47;;;;;;;;;;5090553;28;20052;-59
2024/03/16 05:19:15;;;;;;;10.88;5.85;;;;;;;;;;5092650;28;20056;-59
2024/03/16 05:21:42;;;;;;;12.18;6.72;;;;;;;;;;5063215;28;20119;-58
2024/03/16 05:24:09;;;;;;;11.05;6.13;;;;;;;;;;5064181;28;20473;-59
2024/03/16 05:26:36;;;;;;;8.60;6.18;;;;;;;;;;5065923;28;20048;-59
2024/03/16 05:29:05;;;;;;;10.02;5.20;;;;;;;;;;5067072;28;20053;-58
2024/03/16 05:31:32;;;;;;;11.70;6.00;;;;;;;;;;5068185;28;20048;-59
2024/03/16 05:34:00;;;;;;;8.98;5.97;;;;;;;;;;5065965;28;20051;-58
2024/03/16 05:36:28;;;;;;;11.15;5.70;;;;;;;;;;5067449;28;20054;-59
2024/03/16 05:38:55;;;;;;;9.18;5.72;;;;;;;;;;5057315;28;20063;-60
2024/03/16 05:41:22;;;;;;;11.05;6.00;;;;;;;;;;5070553;28;20405;-59
2024/03/16 05:43:51;;;;;;;10.10;6.18;;;;;;;;;;5071134;28;20394;-58
2024/03/16 05:46:17;;;;;;;9.67;6.03;;;;;;;;;;5068822;28;20051;-58
2024/03/16 05:48:44;;;;;;;9.93;6.15;;;;;;;;;;5076043;28;20478;-59
2024/03/16 05:51:11;;;;;;;9.88;6.72;;;;;;;;;;5077029;28;20062;-59
2024/03/16 05:53:38;;;;;;;11.80;7.25;;;;;;;;;;5066311;28;20052;-59
2024/03/16 05:56:05;;;;;;;12.90;8.20;;;;;;;;;;5067049;28;20048;-59
2024/03/16 05:58:32;;;;;;;12.45;8.07;;;;;;;;;;5061590;28;20062;-59
2024/03/16 06:01:00;;;;;;;12.82;8.10;;;;;;;;;;5069930;28;20059;-59
2024/03/16 06:03:28;;;;;;;11.50;8.57;;;;;;;;;;5066402;28;20055;-60
2024/03/16 06:05:55;;;;;;;11.85;7.95;;;;;;;;;;5059740;28;20047;-59
2024/03/16 06:08:22;;;;;;;11.57;8.38;;;;;;;;;;5056930;28;20504;-59
2024/03/16 06:10:49;;;;;;;12.45;8.02;;;;;;;;;;5056642;28;20052;-59
2024/03/16 06:13:15;;;;;;;12.10;8.60;;;;;;;;;;5056494;28;20390;-59
2024/03/16 06:15:42;;;;;;;13.55;8.57;;;;;;;;;;5070575;28;20048;-60
2024/03/16 06:18:09;;;;;;;11.95;8.40;;;;;;;;;;5070463;28;20377;-59
2024/03/16 06:20:36;;;;;;;11.82;8.70;;;;;;;;;;5068762;28;20382;-60
2024/03/16 06:23:03;;;;;;;12.20;8.65;;;;;;;;;;5075235;28;20048;-59
2024/03/16 06:25:35;;;;;;;13.07;8.93;;;;;;;;;;5076462;28;20401;-60
2024/03/16 06:28:06;;;;;;;14.45;8.95;;;;;;;;;;5071961;28;20489;-60
2024/03/16 06:30:33;;;;;;;14.57;9.40;;;;;;;;;;5058319;28;20045;-60
2024/03/16 06:33:08;;;;;;;12.70;9.25;;;;;;;;;;5069372;28;20486;-59
2024/03/16 06:35:36;;;;;;;13.38;9.38;;;;;;;;;;5070304;28;20051;-60
2024/03/16 06:38:06;;;;;;;13.18;9.15;;;;;;;;;;5064800;28;20075;-59
2024/03/16 06:40:33;;;;;;;12.52;10.10;;;;;;;;;;5066410;28;20060;-59
2024/03/16 06:43:00;;;;;;;12.15;10.68;;;;;;;;;;5067817;28;20052;-59
2024/03/16 06:45:26;;;;;;;11.82;9.32;;;;;;;;;;5062189;28;20051;-60
2024/03/16 06:47:53;;;;;;;8.50;6.57;;;;;;;;;;5061344;28;20047;-59
2024/03/16 06:50:21;;;;;;;10.43;6.85;;;;;;;;;;5067666;28;20048;-59
2024/03/16 06:52:48;;;;;;;10.35;6.55;;;;;;;;;;5065236;28;20062;-59
2024/03/16 06:55:17;;;;;;;8.73;6.30;;;;;;;;;;5065919;28;20044;-59
2024/03/16 06:57:44;;;;;;;7.60;5.75;;;;;;;;;;5057108;28;20060;-59
2024/03/16 07:00:11;;;;;;;8.85;6.30;;;;;;;;;;5059448;28;20070;-59
2024/03/16 07:02:38;;;;;;;7.35;6.15;;;;;;;;;;5065834;28;20048;-58
2024/03/16 07:05:07;;;;;;;8.18;5.78;;;;;;;;;;5069573;28;20044;-59
2024/03/16 07:07:34;;;;;;;9.70;5.95;;;;;;;;;;5066898;28;20049;-59
2024/03/16 07:10:01;;;;;;;7.28;5.88;;;;;;;;;;5067308;28;20052;-59
2024/03/16 07:12:27;;;;;;;8.27;5.57;;;;;;;;;;5063549;28;20052;-59
2024/03/16 07:14:54;;;;;;;7.25;5.50;;;;;;;;;;5066341;28;20069;-59
2024/03/16 07:17:25;;;;;;;5.95;5.00;;;;;;;;;;5064163;28;20079;-59
2024/03/16 07:19:52;;;;;;;6.28;4.75;;;;;;;;;;5064373;28;20059;-59
2024/03/16 07:22:19;;;;;;;5.40;4.53;;;;;;;;;;5075000;28;20048;-59
2024/03/16 07:24:46;;;;;;;5.95;4.00;;;;;;;;;;5068676;28;20405;-59
2024/03/16 07:27:13;;;;;;;4.85;3.90;;;;;;;;;;5065472;28;20051;-60
2024/03/16 07:29:40;;;;;;;5.25;3.45;;;;;;;;;;5064360;28;20055;-59
2024/03/16 07:32:07;;;;;;;3.85;3.25;;;;;;;;;;5075478;28;20605;-59
2024/03/16 07:34:34;;;;;;;5.43;3.38;;;;;;;;;;5066237;28;20045;-59
2024/03/16 07:37:01;;;;;;;4.55;2.60;;;;;;;;;;5065654;28;20058;-59
2024/03/16 07:39:28;;;;;;;3.15;1.92;;;;;;;;;;5074355;28;20059;-59
2024/03/16 07:41:55;;;;;;;3.42;1.80;;;;;;;;;;5074290;28;20052;-59
2024/03/16 07:44:21;;;;;;;3.28;1.88;;;;;;;;;;5069616;28;20064;-60
2024/03/16 07:46:48;;;;;;;2.47;1.45;;;;;;;;;;5066565;28;20063;-59
2024/03/16 07:49:15;;;;;;;2.15;1.40;;;;;;;;;;5089221;28;20378;-59
2024/03/16 07:51:43;;;;;;;2.78;1.20;;;;;;;;;;5065625;28;20049;-59
2024/03/16 07:54:12;;;;;;;1.75;1.10;;;;;;;;;;5055201;28;20052;-59
2024/03/16 07:56:39;;;;;;;2.42;1.33;;;;;;;;;;5063301;28;20044;-59
2024/03/16 07:59:05;;;;;;;2.75;1.20;;;;;;;;;;5061069;28;20064;-59
2024/03/16 08:01:32;;;;;;;3.60;1.40;;;;;;;;;;5068641;28;20369;-59
2024/03/16 08:04:00;;;;;;;5.07;1.70;;;;;;;;;;5087297;28;20052;-58
2024/03/16 08:06:27;;;;;;;4.72;1.67;;;;;;;;;;5058938;28;20054;-59
2024/03/16 08:08:54;;;;;;;2.90;1.67;;;;;;;;;;5063839;28;20055;-59
2024/03/16 08:11:21;;;;;;;3.17;1.73;;;;;;;;;;5072349;28;20047;-59
2024/03/16 08:13:47;;;;;;;3.85;1.77;;;;;;;;;;5061656;28;20057;-59
2024/03/16 08:16:14;;;;;;;2.90;1.85;;;;;;;;;;5066545;28;20082;-59
2024/03/16 08:18:40;;;;;;;4.63;2.17;;;;;;;;;;5070575;28;20052;-59
2024/03/16 08:21:08;;;;;;;4.13;2.28;;;;;;;;;;5065880;28;20071;-58
2024/03/16 08:23:35;;;;;;;4.15;2.22;;;;;;;;;;5082488;28;20055;-58
2024/03/16 08:26:02;;;;;;;5.72;2.60;;;;;;;;;;5061815;28;20059;-59
2024/03/16 08:28:28;;;;;;;3.92;2.20;;;;;;;;;;5058181;28;20048;-59
2024/03/16 08:30:55;;;;;;;4.43;2.17;;;;;;;;;;5069717;28;20052;-59
2024/03/16 08:33:24;;;;;;;4.28;2.47;;;;;;;;;;5054805;28;20064;-59
2024/03/16 08:35:51;;;;;;;3.85;2.00;;;;;;;;;;5055235;28;20053;-59
2024/03/16 08:38:17;;;;;;;3.03;1.77;;;;;;;;;;5061619;28;20528;-58
2024/03/16 08:40:44;;;;;;;5.03;2.00;;;;;;;;;;5064318;28;20048;-59
2024/03/16 08:43:11;;;;;;;3.53;1.70;;;;;;;;;;5060292;28;20151;-59
2024/03/16 08:45:38;;;;;;;3.53;1.80;;;;;;;;;;5063233;28;20053;-59
2024/03/16 08:48:06;;;;;;;3.72;1.52;;;;;;;;;;5073111;28;20067;-59
2024/03/16 08:50:33;;;;;;;2.67;1.02;;;;;;;;;;5075502;28;20052;-59
2024/03/16 08:53:00;;;;;;;2.40;1.20;;;;;;;;;;5075868;28;20059;-59
2024/03/16 08:55:27;;;;;;;2.83;1.00;;;;;;;;;;5057455;28;20049;-59
2024/03/16 08:57:54;;;;;;;1.92;0.88;;;;;;;;;;5057540;28;20419;-58
2024/03/16 09:00:21;;;;;;;2.45;0.90;;;;;;;;;;5058011;28;20057;-58
2024/03/16 09:02:48;;;;;;;2.28;0.95;;;;;;;;;;5069592;28;20413;-59
2024/03/16 09:05:15;;;;;;;3.10;1.27;;;;;;;;;;5076846;28;20071;-59
2024/03/16 09:07:42;;;;;;;2.35;1.20;;;;;;;;;;5077838;28;20052;-59
2024/03/16 09:10:10;;;;;;;2.05;0.90;;;;;;;;;;5077657;28;20059;-59
2024/03/16 09:12:37;;;;;;;1.50;0.90;;;;;;;;;;5076881;28;20056;-58
2024/03/16 09:15:06;;;;;;;3.58;1.20;;;;;;;;;;5074832;28;20056;-59
2024/03/16 09:17:33;;;;;;;2.75;1.20;;;;;;;;;;5066878;28;20064;-58
2024/03/16 09:20:06;;;;;;;4.88;1.92;;;;;;;;;;5057561;28;20052;-58
2024/03/16 09:22:33;;;;;;;5.53;1.60;;;;;;;;;;5062629;28;20052;-58
2024/03/16 09:25:00;;;;;;;4.00;1.15;;;;;;;;;;5071135;28;20052;-58
2024/03/16 09:27:27;;;;;;;3.15;1.10;;;;;;;;;;5070329;28;20051;-58
2024/03/16 09:29:54;;;;;;;2.83;1.20;;;;;;;;;;5064316;28;20523;-59
2024/03/16 09:32:21;;;;;;;3.75;1.20;;;;;;;;;;5065378;28;20048;-59
2024/03/16 09:34:47;;;;;;;4.50;1.20;;;;;;;;;;5057078;28;20509;-59
2024/03/16 09:37:14;;;;;;;3.13;1.13;;;;;;;;;;5073827;28;20052;-59
2024/03/16 09:39:43;;;;;;;5.07;1.35;;;;;;;;;;5075080;28;20052;-59
2024/03/16 09:42:10;;;;;;;3.90;1.17;;;;;;;;;;5074708;28;20097;-59
2024/03/16 09:44:38;;;;;;;3.53;1.50;;;;;;;;;;5061647;28;20051;-59
2024/03/16 09:47:05;;;;;;;3.40;1.00;;;;;;;;;;5063769;28;20053;-59
2024/03/16 09:49:35;;;;;;;2.22;1.10;;;;;;;;;;5074174;28;20051;-59
2024/03/16 09:52:01;;;;;;;3.03;0.90;;;;;;;;;;5075936;28;20052;-59
2024/03/16 09:54:28;;;;;;;2.40;1.00;;;;;;;;;;5070911;28;20390;-59
2024/03/16 09:56:54;;;;;;;4.90;1.55;;;;;;;;;;5070243;28;20063;-59
2024/03/16 09:59:23;;;;;;;2.78;1.20;;;;;;;;;;5056390;28;20052;-59
2024/03/16 10:01:49;;;;;;;2.80;1.02;;;;;;;;;;5062207;28;20063;-59
2024/03/16 10:04:17;;;;;;;2.75;1.63;;;;;;;;;;5076749;28;20052;-59
2024/03/16 10:06:44;;;;;;;3.00;1.60;;;;;;;;;;5074745;28;20071;-59
2024/03/16 10:09:12;;;;;;;3.90;1.20;;;;;;;;;;5074948;28;20056;-59
2024/03/16 10:11:39;;;;;;;3.08;1.10;;;;;;;;;;5060716;28;20504;-59
2024/03/16 10:14:05;;;;;;;3.47;1.10;;;;;;;;;;5076765;28;20056;-59
2024/03/16 10:16:32;;;;;;;2.83;1.10;;;;;;;;;;5067431;28;20044;-59
2024/03/16 10:18:59;;;;;;;3.00;1.00;;;;;;;;;;5065712;28;20048;-59
2024/03/16 10:21:28;;;;;;;3.10;0.85;;;;;;;;;;5072885;28;20386;-59
2024/03/16 10:23:56;;;;;;;4.13;0.90;;;;;;;;;;5061861;28;20063;-59
2024/03/16 10:26:23;;;;;;;1.88;0.80;;;;;;;;;;5068283;28;20496;-59
2024/03/16 10:28:50;;;;;;;2.63;0.95;;;;;;;;;;5064764;28;20405;-59
2024/03/16 10:31:19;;;;;;;3.67;1.17;;;;;;;;;;5062614;28;20045;-60
2024/03/16 10:33:46;;;;;;;3.80;1.13;;;;;;;;;;5070568;28;20048;-60
2024/03/16 10:36:15;;;;;;;6.22;1.40;;;;;;;;;;5068427;28;20048;-59
2024/03/16 10:38:42;;;;;;;4.22;0.90;;;;;;;;;;5074921;28;20066;-60
2024/03/16 10:41:09;;;;;;;4.70;1.00;;;;;;;;;;5066064;28;20062;-58
2024/03/16 10:43:36;;;;;;;6.45;1.20;;;;;;;;;;5070272;28;20044;-59
2024/03/16 10:46:05;;;;;;;2.08;0.95;;;;;;;;;;5060618;28;20048;-59
2024/03/16 10:48:33;;;;;;;3.13;1.30;;;;;;;;;;5069624;28;20052;-59
2024/03/16 10:51:00;;;;;;;3.70;1.42;;;;;;;;;;5063479;28;20048;-60
2024/03/16 10:53:27;;;;;;;4.85;1.40;;;;;;;;;;5058420;28;20494;-59
2024/03/16 10:55:54;;;;;;;3.22;1.00;;;;;;;;;;5055369;28;20048;-60
2024/03/16 10:58:20;;;;;;;2.70;1.13;;;;;;;;;;5060775;28;20051;-59
2024/03/16 11:00:48;;;;;;;3.60;1.20;;;;;;;;;;5063980;28;20052;-59
2024/03/16 11:03:25;;;;;;;4.43;1.40;;;;;;;;;;5059566;28;20055;-59
2024/03/16 11:05:56;;;;;;;5.13;1.30;;;;;;;;;;5076811;28;20048;-59
2024/03/16 11:08:24;;;;;;;3.42;1.50;;;;;;;;;;5076068;28;20052;-59
2024/03/16 11:10:52;;;;;;;3.13;1.20;;;;;;;;;;5075007;28;20074;-59
2024/03/16 11:13:19;;;;;;;5.32;1.55;;;;;;;;;;5075073;28;20063;-59
2024/03/16 11:15:46;;;;;;;2.78;1.10;;;;;;;;;;5066430;28;20040;-59
2024/03/16 11:18:43;;;;;;;3.28;1.25;;;;;;;;;;5055447;28;20055;-59
2024/03/16 11:21:15;;;;;;;3.63;1.58;;;;;;;;;;5055314;28;20059;-58
2024/03/16 11:23:42;;;;;;;3.50;1.40;;;;;;;;;;5068485;28;20051;-59
2024/03/16 11:26:36;;;;;;;2.83;0.90;;;;;;;;;;5062035;28;20048;-59
2024/03/16 11:29:04;;;;;;;4.88;1.25;;;;;;;;;;5028064;28;20056;-60
2024/03/16 11:31:33;;;;;;;3.28;1.00;;;;;;;;;;5055820;28;20052;-59
2024/03/16 11:34:01;;;;;;;4.22;0.95;;;;;;;;;;5054993;28;20052;-59
2024/03/16 11:36:29;;;;;;;2.30;0.80;;;;;;;;;;5054529;28;20044;-59
2024/03/16 11:38:56;;;;;;;2.45;0.80;;;;;;;;;;5071633;28;20055;-59
2024/03/16 11:41:22;;;;;;;2.00;0.60;;;;;;;;;;5074660;28;20060;-59
2024/03/16 11:43:48;;;;;;;2.17;0.80;;;;;;;;;;5075075;28;20055;-58
2024/03/16 11:46:17;;;;;;;2.53;0.70;;;;;;;;;;5064215;28;20044;-59
2024/03/16 11:48:44;;;;;;;2.03;0.70;;;;;;;;;;5055081;28;20429;-59
2024/03/16 11:51:10;;;;;;;2.35;0.80;;;;;;;;;;5061133;28;20060;-59
2024/03/16 11:53:39;;;;;;;2.25;1.08;;;;;;;;;;5050761;28;20413;-59
2024/03/16 11:56:05;;;;;;;1.85;0.73;;;;;;;;;;5064262;28;20047;-59
2024/03/16 11:58:34;;;;;;;2.28;0.70;;;;;;;;;;5063894;28;20051;-58
2024/03/16 12:01:00;;;;;;;3.15;0.80;;;;;;;;;;5060369;28;20064;-58
2024/03/16 12:03:27;;;;;;;2.47;1.02;;;;;;;;;;5067708;28;20055;-58
2024/03/16 12:05:55;;;;;;;3.38;0.95;;;;;;;;;;5074582;28;20485;-58
2024/03/16 12:08:21;;;;;;;1.92;0.90;;;;;;;;;;5069502;28;20405;-58
2024/03/16 12:10:47;;;;;;;3.30;0.82;;;;;;;;;;5068086;28;20040;-59
2024/03/16 12:13:14;;;;;;;2.65;0.95;;;;;;;;;;5069084;28;20090;-59
2024/03/16 12:15:41;;;;;;;2.47;0.90;;;;;;;;;;5065882;28;20058;-57
2024/03/16 12:18:09;;;;;;;2.95;1.10;;;;;;;;;;5074147;28;20071;-58
2024/03/16 12:20:36;;;;;;;1.90;0.80;;;;;;;;;;5074354;28;20052;-58
2024/03/16 12:23:02;;;;;;;3.17;0.95;;;;;;;;;;5074533;28;20063;-58
2024/03/16 12:25:29;;;;;;;3.58;1.00;;;;;;;;;;5073648;28;20060;-58
2024/03/16 12:27:59;;;;;;;2.30;1.10;;;;;;;;;;5072058;28;20691;-58
2024/03/16 12:30:26;;;;;;;2.55;0.90;;;;;;;;;;5067997;28;20501;-58
2024/03/16 12:32:53;;;;;;;3.20;1.40;;;;;;;;;;5074152;28;20437;-58
2024/03/16 12:35:19;;;;;;;3.08;1.30;;;;;;;;;;5074132;28;20063;-58
2024/03/16 12:37:45;;;;;;;3.35;1.23;;;;;;;;;;5074443;28;20477;-57
2024/03/16 12:40:11;;;;;;;5.13;1.63;;;;;;;;;;5074224;28;20493;-58
2024/03/16 12:42:38;;;;;;;3.88;1.30;;;;;;;;;;5072627;28;20094;-58
2024/03/16 12:45:05;;;;;;;3.67;1.13;;;;;;;;;;5067973;28;20060;-58
2024/03/16 12:47:32;;;;;;;4.40;1.40;;;;;;;;;;5053820;28;20044;-58
2024/03/16 12:49:58;;;;;;;3.78;1.10;;;;;;;;;;5054163;28;20055;-58
2024/03/16 12:52:25;;;;;;;4.30;1.30;;;;;;;;;;5054053;28;20060;-58
2024/03/16 12:54:50;;;;;;;4.70;1.13;;;;;;;;;;5053659;28;20064;-58
2024/03/16 12:57:17;;;;;;;2.60;1.20;;;;;;;;;;5054115;28;20052;-57
2024/03/16 12:59:43;;;;;;;3.53;0.90;;;;;;;;;;5053840;28;20056;-57
2024/03/16 13:02:10;;;;;;;4.80;1.30;;;;;;;;;;5053918;28;20083;-58
2024/03/16 13:04:36;;;;;;;3.08;1.23;;;;;;;;;;5054105;28;20052;-58
2024/03/16 13:07:03;;;;;;;3.13;1.02;;;;;;;;;;5053675;28;20379;-58
2024/03/16 13:09:30;;;;;;;3.40;1.20;;;;;;;;;;5053996;28;20075;-58
2024/03/16 13:11:57;;;;;;;3.75;1.40;;;;;;;;;;5053491;28;20422;-58
2024/03/16 13:14:23;;;;;;;4.30;1.23;;;;;;;;;;5070199;28;20052;-57
2024/03/16 13:16:49;;;;;;;4.70;1.30;;;;;;;;;;5073720;28;20054;-57
2024/03/16 13:19:16;;;;;;;4.68;1.40;;;;;;;;;;5073456;28;20048;-58
2024/03/16 13:21:44;;;;;;;3.45;1.25;;;;;;;;;;5072664;28;20052;-57
2024/03/16 13:24:10;;;;;;;2.80;1.40;;;;;;;;;;5074185;28;20052;-57
2024/03/16 13:26:37;;;;;;;2.05;1.33;;;;;;;;;;5073566;28;20062;-57
2024/03/16 13:29:04;;;;;;;3.40;1.20;;;;;;;;;;5060815;28;20481;-57
2024/03/16 13:31:31;;;;;;;2.78;1.40;;;;;;;;;;5053817;28;20057;-57
2024/03/16 13:33:58;;;;;;;5.05;1.40;;;;;;;;;;5053762;28;20079;-57
2024/03/16 13:36:25;;;;;;;3.90;1.20;;;;;;;;;;5054276;28;20560;-57
2024/03/16 13:38:50;;;;;;;4.57;1.55;;;;;;;;;;5057092;28;20059;-57
2024/03/16 13:41:18;;;;;;;3.95;1.92;;;;;;;;;;5057194;28;20147;-57
2024/03/16 13:43:43;;;;;;;5.25;1.50;;;;;;;;;;5059762;28;20187;-57
2024/03/16 13:46:12;;;;;;;3.75;1.38;;;;;;;;;;5056350;28;20478;-57
2024/03/16 13:48:39;;;;;;;3.37;1.60;;;;;;;;;;5056856;28;20498;-58
2024/03/16 13:51:06;;;;;;;4.05;1.40;;;;;;;;;;5056947;28;20052;-57
2024/03/16 13:53:33;;;;;;;4.13;1.42;;;;;;;;;;5056768;28;20164;-57
2024/03/16 13:55:59;;;;;;;4.10;1.58;;;;;;;;;;5056465;28;20059;-57
2024/03/16 13:58:25;;;;;;;2.72;1.27;;;;;;;;;;5059643;28;20486;-59
2024/03/16 14:00:51;;;;;;;3.05;1.27;;;;;;;;;;5056674;28;20458;-59
2024/03/16 14:03:18;;;;;;;3.08;1.30;;;;;;;;;;5056562;28;20072;-59
2024/03/16 14:05:44;;;;;;;4.05;1.42;;;;;;;;;;5056028;28;20061;-59
2024/03/16 14:08:11;;;;;;;3.75;1.40;;;;;;;;;;5056610;28;20115;-59
2024/03/16 14:10:37;;;;;;;4.47;1.42;;;;;;;;;;5056798;28;20049;-58
2024/03/16 14:13:04;;;;;;;3.63;1.40;;;;;;;;;;5064652;28;20436;-58
2024/03/16 14:15:30;;;;;;;3.42;1.50;;;;;;;;;;5076710;28;20052;-58
2024/03/16 14:17:57;;;;;;;3.83;1.67;;;;;;;;;;5076498;28;20090;-58
2024/03/16 14:20:30;;;;;;;4.15;1.42;;;;;;;;;;5076635;28;20052;-58
2024/03/16 14:22:57;;;;;;;5.72;1.83;;;;;;;;;;5077552;28;20063;-58
2024/03/16 14:25:25;;;;;;;5.72;1.50;;;;;;;;;;5076564;28;20063;-58
2024/03/16 14:27:53;;;;;;;5.75;1.77;;;;;;;;;;5074374;28;20055;-58
2024/03/16 14:30:20;;;;;;;4.20;1.73;;;;;;;;;;5076522;28;20478;-58
2024/03/16 14:32:48;;;;;;;2.80;1.58;;;;;;;;;;5076943;28;20063;-58
2024/03/16 14:35:14;;;;;;;2.85;1.55;;;;;;;;;;5076551;28;20405;-59
2024/03/16 14:37:41;;;;;;;3.95;1.60;;;;;;;;;;5076023;28;20050;-57
2024/03/16 14:40:10;;;;;;;3.17;1.55;;;;;;;;;;5075744;28;20052;-57